createdAt,value
2018-11-22T00:00:19.675Z,34.53
2018-11-22T00:05:18.321Z,33.70
2018-11-22T00:10:17.033Z,32.80
2018-11-22T00:15:16.206Z,32.23
2018-11-22T00:20:14.922Z,32.20
2018-11-22T00:25:14.533Z,33.30
2018-11-22T00:30:17.194Z,33.57
2018-11-22T00:35:16.534Z,31.77
2018-11-22T00:40:16.780Z,32.63
2018-11-22T00:45:17.147Z,34.00
2018-11-22T00:50:16.800Z,31.27
2018-11-22T00:55:17.187Z,32.67
2018-11-22T01:00:18.546Z,32.73
2018-11-22T01:05:18.492Z,31.53
2018-11-22T01:10:18.728Z,31.20
2018-11-22T01:15:17.641Z,31.10
2018-11-22T01:20:20.539Z,30.50
2018-11-22T01:25:19.955Z,34.40
2018-11-22T01:30:20.909Z,33.90
2018-11-22T01:35:20.680Z,32.00
2018-11-22T01:40:20.569Z,31.03
2018-11-22T01:45:20.710Z,31.83
2018-11-22T01:50:19.623Z,30.93
2018-11-22T01:55:19.648Z,32.37
2018-11-22T02:00:21.736Z,29.97
2018-11-22T02:05:21.771Z,31.40
2018-11-22T02:10:21.390Z,31.10
2018-11-22T02:15:21.457Z,31.00
2018-11-22T02:20:21.256Z,31.50
2018-11-22T02:25:20.988Z,31.10
2018-11-22T02:30:22.469Z,34.00
2018-11-22T02:35:21.463Z,30.70
2018-11-22T02:40:21.699Z,32.10
2018-11-22T02:45:22.148Z,30.10
2018-11-22T02:50:23.082Z,31.37
2018-11-22T02:55:21.716Z,28.93
2018-11-22T03:00:38.044Z,30.47
2018-11-22T03:05:36.676Z,31.50
2018-11-22T03:10:35.400Z,32.40
2018-11-22T03:15:34.043Z,32.70
2018-11-22T03:20:32.697Z,29.90
2018-11-22T03:25:31.334Z,32.00
2018-11-22T03:30:29.980Z,30.57
2018-11-22T03:35:29.043Z,32.90
2018-11-22T03:40:27.813Z,33.27
2018-11-22T03:45:26.933Z,30.03
2018-11-22T03:50:26.763Z,30.40
2018-11-22T03:55:25.420Z,30.30
2018-11-22T04:00:25.733Z,30.77
2018-11-22T04:05:25.366Z,31.30
2018-11-22T04:10:25.508Z,33.17
2018-11-22T04:15:24.358Z,32.80
2018-11-22T04:20:24.324Z,31.47
2018-11-22T04:25:24.130Z,31.07
2018-11-22T04:30:24.396Z,32.40
2018-11-22T04:35:24.436Z,30.07
2018-11-22T04:40:25.307Z,32.57
2018-11-22T04:45:23.944Z,32.00
2018-11-22T04:50:24.005Z,31.60
2018-11-22T04:55:22.652Z,32.37
2018-11-22T05:00:22.799Z,31.90
2018-11-22T05:05:25.717Z,31.70
2018-11-22T05:10:25.808Z,31.57
2018-11-22T05:15:26.152Z,29.87
2018-11-22T05:20:24.860Z,28.60
2018-11-22T05:25:23.498Z,30.07
2018-11-22T05:30:24.426Z,29.50
2018-11-22T05:35:23.534Z,29.97
2018-11-22T05:40:26.424Z,29.43
2018-11-22T05:45:26.498Z,28.23
2018-11-22T05:50:29.163Z,29.23
2018-11-22T05:55:27.805Z,30.50
2018-11-22T06:00:30.456Z,27.17
2018-11-22T06:05:30.284Z,27.80
2018-11-22T06:10:30.734Z,25.77
2018-11-22T06:15:29.290Z,27.93
2018-11-22T06:20:29.286Z,26.67
2018-11-22T06:25:27.943Z,24.00
2018-11-22T06:30:30.765Z,28.00
2018-11-22T06:35:30.449Z,24.53
2018-11-22T06:40:29.141Z,26.23
2018-11-22T06:45:29.064Z,27.60
2018-11-22T06:50:28.145Z,26.70
2018-11-22T06:55:33.931Z,27.50
2018-11-22T07:00:33.441Z,26.87
2018-11-22T07:05:32.187Z,27.13
2018-11-22T07:10:30.873Z,26.30
2018-11-22T07:15:29.594Z,25.97
2018-11-22T07:20:28.563Z,27.57
2018-11-22T07:25:27.471Z,26.20
2018-11-22T07:30:27.902Z,26.00
2018-11-22T07:35:28.383Z,26.20
2018-11-22T07:40:28.588Z,25.10
2018-11-22T07:45:29.037Z,25.00
2018-11-22T07:50:27.736Z,24.87
2018-11-22T07:55:26.439Z,27.63
2018-11-22T08:00:26.801Z,24.90
2018-11-22T08:05:26.616Z,25.40
2018-11-22T08:10:25.299Z,25.23
2018-11-22T08:15:25.665Z,27.30
2018-11-22T08:20:24.987Z,25.37
2018-11-22T08:25:24.709Z,24.13
2018-11-22T08:30:24.465Z,25.33
2018-11-22T08:35:23.337Z,23.77
2018-11-22T08:40:23.586Z,25.10
2018-11-22T08:45:23.203Z,25.00
2018-11-22T08:50:25.943Z,24.20
2018-11-22T08:55:24.605Z,24.03
2018-11-22T09:00:25.380Z,25.20
2018-11-22T09:05:25.713Z,23.70
2018-11-22T09:10:25.323Z,24.00
2018-11-22T09:15:31.224Z,24.53
2018-11-22T09:20:26.319Z,24.20
2018-11-22T09:25:25.021Z,23.80
2018-11-22T09:30:25.572Z,23.03
2018-11-22T09:35:25.462Z,21.53
2018-11-22T09:40:25.837Z,21.93
2018-11-22T09:45:43.351Z,22.43
2018-11-22T09:50:42.076Z,20.57
2018-11-22T09:55:40.743Z,20.33
2018-11-22T10:00:39.405Z,21.17
2018-11-22T10:05:38.147Z,19.97
2018-11-22T10:10:38.632Z,19.70
2018-11-22T10:15:38.297Z,21.10
2018-11-22T10:20:36.974Z,20.77
2018-11-22T10:25:35.646Z,18.70
2018-11-22T10:30:34.306Z,19.50
2018-11-22T10:35:34.731Z,20.87
2018-11-22T12:20:30.083Z,14.60
2018-11-22T12:25:28.318Z,14.93
2018-11-22T12:30:27.327Z,14.17
2018-11-22T12:35:30.485Z,13.60
2018-11-22T12:40:28.348Z,13.90
2018-11-22T12:45:26.204Z,12.20
2018-11-22T12:50:23.652Z,14.50
2018-11-22T12:55:21.148Z,13.43
2018-11-22T13:00:18.937Z,12.97
2018-11-22T13:05:17.667Z,13.80
2018-11-22T13:10:16.545Z,12.73
2018-11-22T13:15:15.472Z,14.80
2018-11-22T13:20:14.397Z,14.20
2018-11-22T13:25:13.575Z,14.13
2018-11-22T13:30:25.941Z,15.03
2018-11-22T13:35:23.480Z,14.30
2018-11-22T13:40:20.949Z,14.40
2018-11-22T13:45:20.760Z,13.63
2018-11-22T13:50:22.906Z,13.67
2018-11-22T13:55:20.432Z,15.37
2018-11-22T14:00:22.171Z,14.77
2018-11-22T14:05:19.701Z,16.13
2018-11-22T14:10:18.511Z,14.30
2018-11-22T14:15:32.046Z,15.97
2018-11-22T14:20:30.969Z,16.23
2018-11-22T14:25:28.843Z,14.90
2018-11-22T14:30:27.932Z,14.37
2018-11-22T14:35:26.068Z,12.93
2018-11-22T14:40:25.169Z,13.47
2018-11-22T14:45:23.441Z,12.10
2018-11-22T14:50:24.580Z,12.50
2018-11-22T14:55:22.076Z,12.13
2018-11-22T15:00:19.717Z,13.57
2018-11-22T15:05:17.218Z,13.70
2018-11-22T15:10:15.857Z,13.33
2018-11-22T15:15:15.532Z,13.13
2018-11-22T15:20:14.226Z,13.80
2018-11-22T15:25:16.475Z,13.40
2018-11-22T15:30:16.683Z,15.30
2018-11-22T15:35:15.408Z,12.77
2018-11-22T15:40:14.196Z,13.90
2018-11-22T15:45:13.222Z,14.57
2018-11-22T15:50:12.305Z,14.07
2018-11-22T15:55:10.378Z,13.80
2018-11-22T16:00:12.503Z,13.20
2018-11-22T16:05:11.205Z,15.43
2018-11-22T16:10:15.073Z,15.00
2018-11-22T16:15:27.482Z,14.20
2018-11-22T16:20:28.196Z,15.87
2018-11-22T16:25:25.723Z,14.47
2018-11-22T16:30:25.981Z,14.60
2018-11-22T16:35:25.032Z,15.10
2018-11-22T16:40:23.912Z,15.40
2018-11-22T16:45:24.449Z,16.20
2018-11-22T16:50:23.980Z,16.13
2018-11-22T16:55:21.820Z,14.63
2018-11-22T17:00:24.684Z,14.20
2018-11-22T17:05:22.440Z,15.93
2018-11-22T17:10:21.244Z,15.00
2018-11-22T17:15:19.848Z,13.97
2018-11-22T17:20:18.168Z,14.20
2018-11-22T17:25:21.071Z,14.50
2018-11-22T17:30:21.283Z,13.70
2018-11-22T17:35:20.193Z,15.00
2018-11-22T17:40:23.844Z,14.30
2018-11-22T17:45:25.616Z,14.30
2018-11-22T17:50:25.706Z,14.93
2018-11-22T17:55:24.517Z,13.80
2018-11-22T18:00:25.821Z,14.40
2018-11-22T18:05:27.134Z,14.37
2018-11-22T18:10:22.185Z,13.83
2018-11-22T18:15:20.467Z,13.60
2018-11-22T18:20:20.920Z,15.67
2018-11-22T18:25:19.729Z,13.83
2018-11-22T18:30:22.593Z,13.90
2018-11-22T18:35:20.036Z,14.37
2018-11-22T18:40:19.642Z,12.87
2018-11-22T18:45:22.838Z,12.37
2018-11-22T18:50:21.670Z,14.50
2018-11-22T18:55:19.178Z,14.07
2018-11-22T19:00:23.017Z,14.30
2018-11-22T19:05:20.488Z,13.33
2018-11-22T19:10:20.328Z,13.30
2018-11-22T19:15:19.236Z,13.03
2018-11-22T19:20:19.272Z,13.97
2018-11-22T19:25:17.265Z,14.07
2018-11-22T19:30:19.683Z,14.00
2018-11-22T19:35:20.406Z,14.70
2018-11-22T19:40:20.645Z,13.70
2018-11-22T19:45:19.370Z,12.47
2018-11-22T19:50:18.252Z,13.93
2018-11-22T19:55:16.961Z,14.00
2018-11-22T20:00:16.798Z,15.40
2018-11-22T20:05:15.386Z,13.67
2018-11-22T20:10:16.783Z,16.73
2018-11-22T20:15:14.947Z,13.60
2018-11-22T20:20:14.039Z,13.00
2018-11-22T20:25:12.191Z,14.97
2018-11-22T20:30:27.152Z,13.77
2018-11-22T20:35:26.290Z,13.67
2018-11-22T20:40:27.797Z,14.77
2018-11-22T20:45:29.278Z,15.27
2018-11-22T20:50:28.459Z,15.67
2018-11-22T20:55:27.887Z,14.57
2018-11-22T21:00:29.295Z,15.07
2018-11-22T21:05:27.404Z,14.80
2018-11-22T21:10:26.176Z,14.03
2018-11-22T21:15:28.778Z,15.57
2018-11-22T21:20:27.779Z,13.70
2018-11-22T21:25:25.201Z,15.90
2018-11-22T21:30:26.069Z,16.80
2018-11-22T21:35:25.626Z,15.77
2018-11-22T21:40:24.891Z,14.90
2018-11-22T21:45:26.211Z,14.93
2018-11-22T21:50:24.903Z,14.27
2018-11-22T21:55:23.517Z,16.03
2018-11-22T22:00:25.834Z,15.97
2018-11-22T22:05:23.276Z,14.77
2018-11-22T22:10:20.697Z,15.33
2018-11-22T22:15:19.885Z,15.63
2018-11-22T22:20:18.881Z,13.97
2018-11-22T22:25:18.529Z,13.70
2018-11-22T22:30:18.456Z,14.30
2018-11-22T22:35:15.892Z,14.83
2018-11-22T22:40:15.956Z,15.70
2018-11-22T22:45:14.346Z,14.67
2018-11-22T22:50:14.800Z,15.40
2018-11-22T22:55:12.773Z,14.40
2018-11-22T23:00:20.823Z,16.33
2018-11-22T23:05:18.595Z,16.33
2018-11-22T23:10:16.756Z,15.17
2018-11-22T23:15:15.251Z,17.00
2018-11-22T23:20:15.089Z,16.30
2018-11-22T23:25:13.295Z,16.20
2018-11-22T23:30:15.810Z,16.83
2018-11-22T23:35:13.255Z,15.67
2018-11-22T23:40:19.284Z,15.77
2018-11-22T23:45:18.050Z,15.53
2018-11-22T23:50:18.814Z,15.70
2018-11-22T23:55:16.335Z,16.10
